createdAt,value
2019-03-23T00:01:27.079Z,8.27
2019-03-23T00:03:54.884Z,6.83
2019-03-23T00:06:30.442Z,9.63
2019-03-23T00:08:52.550Z,8.27
2019-03-23T00:11:20.474Z,8.63
2019-03-23T00:13:48.565Z,8.60
2019-03-23T00:16:16.312Z,8.80
2019-03-23T00:18:44.066Z,9.43
2019-03-23T00:21:11.828Z,7.47
2019-03-23T00:23:39.591Z,8.07
2019-03-23T00:26:07.347Z,8.10
2019-03-23T00:28:35.207Z,8.57
2019-03-23T00:31:03.366Z,8.67
2019-03-23T00:33:31.181Z,10.10
2019-03-23T00:35:59.140Z,10.00
2019-03-23T00:38:26.930Z,11.67
2019-03-23T00:40:54.699Z,10.63
2019-03-23T00:43:22.684Z,7.87
2019-03-23T00:45:50.490Z,8.03
2019-03-23T00:48:18.264Z,8.03
2019-03-23T00:50:46.218Z,6.90
2019-03-23T00:53:14.190Z,6.70
2019-03-23T00:55:41.904Z,9.93
2019-03-23T00:58:09.631Z,8.07
2019-03-23T01:00:37.348Z,10.43
2019-03-23T01:03:05.391Z,9.17
2019-03-23T01:05:33.235Z,9.37
2019-03-23T01:08:01.450Z,13.73
2019-03-23T01:10:29.301Z,14.80
2019-03-23T01:12:57.030Z,14.50
2019-03-23T01:15:24.778Z,13.33
2019-03-23T01:17:52.601Z,13.20
2019-03-23T01:20:20.353Z,10.23
2019-03-23T01:22:48.129Z,11.00
2019-03-23T01:25:16.380Z,13.17
2019-03-23T01:27:44.203Z,12.23
2019-03-23T01:30:12.773Z,12.07
2019-03-23T01:32:40.789Z,15.57
2019-03-23T01:35:09.091Z,13.47
2019-03-23T01:37:37.009Z,14.43
2019-03-23T01:40:05.806Z,14.60
2019-03-23T01:42:33.989Z,14.30
2019-03-23T01:45:02.948Z,16.97
2019-03-23T01:47:31.171Z,18.90
2019-03-23T01:50:00.082Z,28.90
2019-03-23T01:52:29.396Z,34.17
2019-03-23T01:54:58.421Z,43.90
2019-03-23T01:57:27.462Z,43.20
2019-03-23T01:59:56.791Z,46.13
2019-03-23T02:02:25.886Z,53.60
2019-03-23T02:04:54.727Z,63.80
2019-03-23T02:07:23.434Z,62.67
2019-03-23T02:09:52.243Z,78.93
2019-03-23T02:12:21.016Z,71.63
2019-03-23T02:14:50.433Z,71.63
2019-03-23T02:17:19.409Z,70.90
2019-03-23T02:19:49.054Z,78.47
2019-03-23T02:22:16.814Z,76.87
2019-03-23T02:24:45.809Z,77.37
2019-03-23T02:27:14.614Z,80.97
2019-03-23T02:29:43.573Z,77.50
2019-03-23T02:32:11.936Z,72.07
2019-03-23T02:34:41.125Z,69.87
2019-03-23T02:37:09.842Z,72.93
2019-03-23T02:39:39.262Z,74.77
2019-03-23T02:42:08.388Z,74.10
2019-03-23T02:44:37.452Z,71.03
2019-03-23T02:47:06.363Z,75.77
2019-03-23T02:49:35.740Z,70.97
2019-03-23T02:52:04.755Z,69.90
2019-03-23T02:54:33.759Z,84.00
2019-03-23T02:57:02.597Z,77.13
2019-03-23T02:59:32.115Z,79.87
2019-03-23T03:02:00.956Z,77.73
2019-03-23T03:04:30.352Z,76.77
2019-03-23T03:06:59.682Z,86.73
2019-03-23T03:09:29.302Z,92.23
2019-03-23T03:11:58.187Z,92.37
2019-03-23T03:14:27.283Z,88.67
2019-03-23T03:16:56.678Z,83.20
2019-03-23T03:19:25.625Z,94.80
2019-03-23T03:21:54.452Z,110.50
2019-03-23T03:24:23.500Z,98.23
2019-03-23T03:26:52.489Z,116.03
2019-03-23T03:29:21.537Z,108.03
2019-03-23T03:31:50.683Z,112.13
2019-03-23T03:34:20.247Z,104.47
2019-03-23T03:36:48.374Z,110.90
2019-03-23T03:39:17.366Z,123.33
2019-03-23T03:41:46.247Z,117.27
2019-03-23T03:44:15.653Z,129.13
2019-03-23T03:46:43.837Z,124.38
2019-03-23T03:49:13.232Z,130.82
2019-03-23T03:51:42.687Z,113.68
2019-03-23T03:54:11.740Z,127.15
2019-03-23T03:56:39.869Z,135.22
2019-03-23T03:59:09.414Z,124.23
2019-03-23T04:01:37.648Z,129.32
2019-03-23T04:04:06.716Z,117.45
2019-03-23T04:06:35.880Z,134.07
2019-03-23T04:09:06.407Z,124.47
2019-03-23T04:11:35.425Z,141.85
2019-03-23T04:14:04.221Z,138.15
2019-03-23T04:16:33.310Z,151.90
2019-03-23T04:19:02.299Z,151.70
2019-03-23T04:21:31.484Z,147.57
2019-03-23T04:24:00.528Z,156.87
2019-03-23T04:26:29.654Z,162.15
2019-03-23T04:28:57.565Z,156.72
2019-03-23T04:31:26.346Z,161.40
2019-03-23T04:33:55.076Z,165.35
2019-03-23T04:36:25.987Z,165.35
2019-03-23T04:38:54.075Z,182.53
2019-03-23T04:41:22.044Z,176.70
2019-03-23T04:43:50.734Z,181.82
2019-03-23T04:46:19.777Z,188.95
2019-03-23T04:48:48.535Z,174.25
2019-03-23T04:51:17.889Z,180.80
2019-03-23T04:53:47.374Z,171.68
2019-03-23T04:56:15.502Z,171.53
2019-03-23T04:58:44.522Z,173.45
2019-03-23T05:01:13.737Z,187.57
2019-03-23T05:03:43.088Z,191.03
2019-03-23T05:06:11.825Z,166.77
2019-03-23T05:08:40.949Z,167.20
2019-03-23T05:11:10.225Z,185.90
2019-03-23T05:13:38.673Z,168.32
2019-03-23T05:16:07.802Z,164.22
2019-03-23T05:18:36.085Z,173.35
2019-03-23T05:21:05.117Z,169.37
2019-03-23T05:23:34.516Z,177.78
2019-03-23T05:26:03.862Z,168.57
2019-03-23T05:28:32.281Z,176.85
2019-03-23T05:31:01.788Z,174.47
2019-03-23T05:33:31.191Z,176.80
2019-03-23T05:35:59.530Z,171.28
2019-03-23T05:38:28.391Z,179.97
2019-03-23T05:40:57.988Z,171.62
2019-03-23T05:43:27.603Z,169.37
2019-03-23T05:45:56.224Z,191.50
2019-03-23T05:48:25.174Z,206.53
2019-03-23T05:50:54.710Z,167.60
2019-03-23T05:53:23.322Z,180.55
2019-03-23T05:55:51.819Z,174.20
2019-03-23T05:58:20.619Z,159.00
2019-03-23T06:00:50.338Z,156.97
2019-03-23T06:03:18.665Z,146.18
2019-03-23T06:05:48.077Z,153.35
2019-03-23T06:08:16.373Z,154.55
2019-03-23T06:10:45.294Z,163.07
2019-03-23T06:13:14.193Z,144.20
2019-03-23T06:15:43.000Z,148.30
2019-03-23T06:18:10.743Z,156.07
2019-03-23T06:20:39.477Z,145.15
2019-03-23T06:23:08.653Z,142.43
2019-03-23T06:25:37.554Z,135.80
2019-03-23T06:28:07.348Z,131.70
2019-03-23T06:30:35.986Z,148.95
2019-03-23T06:33:04.054Z,133.43
2019-03-23T06:35:32.833Z,134.55
2019-03-23T06:38:01.671Z,144.95
2019-03-23T06:40:31.949Z,135.13
2019-03-23T06:43:00.172Z,130.30
2019-03-23T06:45:28.970Z,115.03
2019-03-23T06:47:57.691Z,129.27
2019-03-23T06:50:26.517Z,128.60
2019-03-23T06:52:55.522Z,123.55
2019-03-23T06:55:24.301Z,123.05
2019-03-23T06:57:53.755Z,135.33
2019-03-23T07:00:22.890Z,123.28
2019-03-23T07:02:51.051Z,131.23
2019-03-23T07:05:19.947Z,126.10
2019-03-23T07:07:48.686Z,128.15
2019-03-23T07:10:17.518Z,130.50
2019-03-23T07:12:45.278Z,129.97
2019-03-23T07:15:19.908Z,132.57
2019-03-23T07:17:45.038Z,116.30
2019-03-23T07:20:14.548Z,125.33
2019-03-23T07:22:43.872Z,116.20
2019-03-23T07:25:13.050Z,129.63
2019-03-23T07:27:41.773Z,111.93
2019-03-23T07:30:12.112Z,150.37
2019-03-23T07:32:40.890Z,129.27
2019-03-23T07:35:10.142Z,128.03
2019-03-23T07:37:38.872Z,131.27
2019-03-23T07:40:08.701Z,127.50
2019-03-23T07:42:37.436Z,117.67
2019-03-23T07:45:06.710Z,115.17
2019-03-23T07:47:35.550Z,120.00
2019-03-23T07:50:05.394Z,123.07
2019-03-23T07:52:34.202Z,107.87
2019-03-23T07:55:10.558Z,114.57
2019-03-23T07:57:39.578Z,117.90
2019-03-23T08:00:09.438Z,125.60
2019-03-23T08:02:38.221Z,112.47
2019-03-23T08:05:07.493Z,114.67
2019-03-23T08:07:36.213Z,106.97
2019-03-23T08:10:05.401Z,111.30
2019-03-23T08:12:34.422Z,104.53
2019-03-23T08:15:03.728Z,105.70
2019-03-23T08:17:32.565Z,111.00
2019-03-23T08:20:01.718Z,95.47
2019-03-23T08:22:31.176Z,104.03
2019-03-23T08:24:59.896Z,105.20
2019-03-23T08:27:28.931Z,109.67
2019-03-23T08:29:57.902Z,104.13
2019-03-23T08:32:26.517Z,93.53
2019-03-23T08:34:55.315Z,92.33
2019-03-23T08:37:24.154Z,99.20
2019-03-23T08:39:52.799Z,111.97
2019-03-23T08:42:21.535Z,108.23
2019-03-23T08:44:50.362Z,94.73
2019-03-23T08:47:19.301Z,102.50
2019-03-23T08:49:47.901Z,100.80
2019-03-23T08:52:16.638Z,98.27
2019-03-23T08:54:45.370Z,105.73
2019-03-23T08:57:14.106Z,100.00
2019-03-23T08:59:42.982Z,103.60
2019-03-23T09:02:11.835Z,97.67
2019-03-23T09:04:40.630Z,97.37
2019-03-23T09:07:09.707Z,92.70
2019-03-23T09:09:38.940Z,95.13
2019-03-23T09:12:08.154Z,92.13
2019-03-23T09:14:37.292Z,103.20
2019-03-23T09:17:06.448Z,103.33
2019-03-23T09:19:35.510Z,95.03
2019-03-23T09:22:04.470Z,95.83
2019-03-23T09:24:33.490Z,89.97
2019-03-23T09:27:02.211Z,95.33
2019-03-23T09:29:31.216Z,89.97
2019-03-23T09:32:00.257Z,89.60
2019-03-23T09:34:29.573Z,87.43
2019-03-23T09:36:57.345Z,90.67
2019-03-23T09:39:25.515Z,84.30
2019-03-23T09:41:54.395Z,89.37
2019-03-23T09:44:23.848Z,92.17
2019-03-23T09:46:53.093Z,92.40
2019-03-23T09:49:22.147Z,84.77
2019-03-23T09:51:51.298Z,83.33
2019-03-23T09:54:20.025Z,92.53
2019-03-23T09:56:49.340Z,90.90
2019-03-23T09:59:18.119Z,86.57
2019-03-23T10:01:47.602Z,88.77
2019-03-23T10:04:16.639Z,86.17
2019-03-23T10:06:45.674Z,87.53
2019-03-23T10:09:14.950Z,86.47
2019-03-23T10:11:43.877Z,86.90
2019-03-23T10:14:12.868Z,88.87
2019-03-23T10:16:41.830Z,85.57
2019-03-23T10:19:11.194Z,75.20
2019-03-23T10:21:40.454Z,88.20
2019-03-23T10:24:09.608Z,80.17
2019-03-23T10:26:39.061Z,80.80
2019-03-23T10:29:09.046Z,78.47
2019-03-23T10:31:38.139Z,84.07
2019-03-23T10:34:07.160Z,85.37
2019-03-23T10:36:36.437Z,83.30
2019-03-23T10:39:06.007Z,86.20
2019-03-23T10:41:34.727Z,89.17
2019-03-23T10:44:03.984Z,91.40
2019-03-23T10:46:32.874Z,107.77
2019-03-23T10:49:01.801Z,95.87
2019-03-23T10:51:31.017Z,77.50
2019-03-23T10:53:59.677Z,86.60
2019-03-23T10:56:29.343Z,71.37
2019-03-23T10:59:03.179Z,78.10
2019-03-23T11:01:31.701Z,73.80
2019-03-23T11:04:00.391Z,77.50
2019-03-23T11:06:29.045Z,83.97
2019-03-23T11:08:56.934Z,88.30
2019-03-23T11:11:25.701Z,84.37
2019-03-23T11:13:55.002Z,85.50
2019-03-23T11:16:23.842Z,85.03
2019-03-23T11:18:52.826Z,77.53
2019-03-23T11:21:21.881Z,71.40
2019-03-23T11:23:50.841Z,71.97
2019-03-23T11:26:20.042Z,64.47
2019-03-23T11:28:49.182Z,61.37
2019-03-23T11:31:36.132Z,62.80
2019-03-23T11:34:04.101Z,66.90
2019-03-23T11:36:32.370Z,62.43
2019-03-23T11:39:00.354Z,73.00
2019-03-23T11:41:28.537Z,59.93
2019-03-23T11:43:56.502Z,64.63
2019-03-23T11:46:24.220Z,65.67
2019-03-23T11:48:52.261Z,56.03
2019-03-23T11:51:20.219Z,58.70
2019-03-23T11:53:48.113Z,57.23
2019-03-23T11:56:15.830Z,60.93
2019-03-23T11:58:44.358Z,60.97
2019-03-23T12:01:16.333Z,62.03
2019-03-23T12:03:54.247Z,58.80
2019-03-23T12:06:22.318Z,59.83
2019-03-23T12:08:51.534Z,64.97
2019-03-23T12:11:20.215Z,58.03
2019-03-23T12:13:47.923Z,57.53
2019-03-23T12:16:15.968Z,63.57
2019-03-23T12:18:44.049Z,59.10
2019-03-23T12:21:12.227Z,56.50
2019-03-23T12:23:40.642Z,52.70
2019-03-23T12:26:08.627Z,52.77
2019-03-23T12:28:36.880Z,56.40
2019-03-23T12:31:04.866Z,51.97
2019-03-23T12:33:32.909Z,57.33
2019-03-23T12:36:01.295Z,50.37
2019-03-23T12:38:29.193Z,49.77
2019-03-23T12:40:57.272Z,46.07
2019-03-23T12:43:26.170Z,49.80
2019-03-23T12:45:55.477Z,50.23
2019-03-23T12:48:24.538Z,45.57
2019-03-23T12:50:54.082Z,45.70
2019-03-23T12:53:21.784Z,49.90
2019-03-23T12:55:52.542Z,47.27
2019-03-23T12:58:22.846Z,49.00
2019-03-23T13:00:52.159Z,47.27
2019-03-23T13:03:21.586Z,47.13
2019-03-23T13:05:50.469Z,46.80
2019-03-23T13:08:19.924Z,48.80
2019-03-23T13:10:48.949Z,47.93
2019-03-23T13:13:18.264Z,48.33
2019-03-23T13:15:48.274Z,48.30
2019-03-23T13:18:26.909Z,44.90
2019-03-23T13:20:53.210Z,53.77
2019-03-23T13:23:21.254Z,49.53
2019-03-23T13:25:49.478Z,47.27
2019-03-23T13:28:17.209Z,45.83
2019-03-23T13:30:45.182Z,41.63
2019-03-23T13:33:13.091Z,45.70
2019-03-23T13:35:41.046Z,42.70
2019-03-23T13:38:09.898Z,42.33
2019-03-23T13:40:38.861Z,42.13
2019-03-23T13:43:08.178Z,41.73
2019-03-23T13:45:42.600Z,39.83
2019-03-23T13:48:09.233Z,40.63
2019-03-23T13:50:38.221Z,45.87
2019-03-23T13:53:07.169Z,45.20
2019-03-23T13:55:35.928Z,39.50
2019-03-23T13:58:11.734Z,43.73
2019-03-23T14:00:40.801Z,47.50
2019-03-23T14:03:10.184Z,40.27
2019-03-23T14:05:39.090Z,43.13
2019-03-23T14:08:08.275Z,40.43
2019-03-23T14:10:37.210Z,45.07
2019-03-23T14:13:06.607Z,44.13
2019-03-23T14:15:35.777Z,40.90
2019-03-23T14:18:04.077Z,40.13
2019-03-23T14:20:33.227Z,45.80
2019-03-23T14:23:13.631Z,43.50
2019-03-23T14:25:42.628Z,44.33
2019-03-23T14:28:10.341Z,43.30
2019-03-23T14:30:38.254Z,41.50
2019-03-23T14:33:08.905Z,44.50
2019-03-23T14:35:38.412Z,46.60
2019-03-23T14:38:06.679Z,44.80
2019-03-23T14:40:50.345Z,50.77
2019-03-23T14:43:27.089Z,52.63
2019-03-23T14:45:56.271Z,51.20
2019-03-23T14:48:24.974Z,49.93
2019-03-23T14:50:52.942Z,51.13
2019-03-23T14:53:20.733Z,54.67
2019-03-23T14:55:48.587Z,50.63
2019-03-23T14:58:16.338Z,49.23
2019-03-23T15:00:44.596Z,51.80
2019-03-23T15:03:12.396Z,52.17
2019-03-23T15:05:40.186Z,52.83
2019-03-23T15:08:08.324Z,52.40
2019-03-23T15:10:36.554Z,55.77
2019-03-23T15:13:04.341Z,52.67
2019-03-23T15:15:32.853Z,53.00
2019-03-23T15:18:00.754Z,55.57
2019-03-23T15:20:29.608Z,51.97
2019-03-23T15:22:57.881Z,54.40
2019-03-23T15:25:25.802Z,53.00
2019-03-23T15:27:54.136Z,51.73
2019-03-23T15:30:22.147Z,59.80
2019-03-23T15:32:50.554Z,58.37
2019-03-23T15:35:18.509Z,52.23
2019-03-23T15:37:46.809Z,54.90
2019-03-23T15:40:16.250Z,57.70
2019-03-23T15:42:45.101Z,52.73
2019-03-23T15:45:13.697Z,51.07
2019-03-23T15:47:41.801Z,53.13
2019-03-23T15:50:10.086Z,52.70
2019-03-23T15:52:37.827Z,54.03
2019-03-23T15:55:06.177Z,60.47
2019-03-23T15:57:35.077Z,56.67
2019-03-23T16:00:05.592Z,60.03
2019-03-23T16:02:34.605Z,53.20
2019-03-23T16:05:04.174Z,55.67
2019-03-23T16:07:34.041Z,53.77
2019-03-23T16:10:03.970Z,59.20
2019-03-23T16:12:35.326Z,54.63
2019-03-23T16:15:06.313Z,52.77
2019-03-23T16:17:34.030Z,57.47
2019-03-23T16:20:03.231Z,57.73
2019-03-23T16:22:32.011Z,57.40
2019-03-23T16:25:00.861Z,57.70
2019-03-23T16:27:29.586Z,60.50
2019-03-23T16:29:58.382Z,54.37
2019-03-23T16:32:27.261Z,54.37
2019-03-23T16:34:56.325Z,59.10
2019-03-23T16:37:25.046Z,59.23
2019-03-23T16:39:55.178Z,54.20
2019-03-23T16:42:24.226Z,59.90
2019-03-23T16:44:53.101Z,56.53
2019-03-23T16:47:22.074Z,56.60
2019-03-23T16:49:50.894Z,56.17
2019-03-23T16:52:19.689Z,55.60
2019-03-23T16:54:48.951Z,58.20
2019-03-23T16:57:18.146Z,57.17
2019-03-23T16:59:45.865Z,56.97
2019-03-23T17:02:14.475Z,55.83
2019-03-23T17:04:43.210Z,53.83
2019-03-23T17:07:11.929Z,51.80
2019-03-23T17:09:40.562Z,59.03
2019-03-23T17:12:09.565Z,55.27
2019-03-23T17:14:38.810Z,52.00
2019-03-23T17:17:08.010Z,52.40
2019-03-23T17:19:37.584Z,53.33
2019-03-23T17:22:07.039Z,61.63
2019-03-23T17:24:35.967Z,55.53
2019-03-23T17:27:05.083Z,57.20
2019-03-23T17:29:33.826Z,57.13
2019-03-23T17:32:02.578Z,49.73
2019-03-23T17:34:31.723Z,58.10
2019-03-23T17:37:00.678Z,55.43
2019-03-23T17:39:29.588Z,60.27
2019-03-23T17:41:59.103Z,61.90
2019-03-23T17:44:28.361Z,57.50
2019-03-23T17:46:57.410Z,56.17
2019-03-23T17:49:26.386Z,54.93
2019-03-23T17:51:55.887Z,60.10
2019-03-23T17:54:24.637Z,53.80
2019-03-23T17:56:54.177Z,56.30
2019-03-23T17:59:23.309Z,62.33
2019-03-23T18:01:52.702Z,57.30
2019-03-23T18:04:21.677Z,58.27
2019-03-23T18:06:50.593Z,61.17
2019-03-23T18:09:19.701Z,58.03
2019-03-23T18:11:48.485Z,59.57
2019-03-23T18:14:17.667Z,58.63
2019-03-23T18:16:46.310Z,61.03
2019-03-23T18:19:15.030Z,67.03
2019-03-23T18:21:43.840Z,55.30
2019-03-23T18:24:12.604Z,63.80
2019-03-23T18:26:41.234Z,56.97
2019-03-23T18:29:10.092Z,63.27
2019-03-23T18:31:38.720Z,58.67
2019-03-23T18:34:07.453Z,59.70
2019-03-23T18:36:36.325Z,57.57
2019-03-23T18:39:05.478Z,53.33
2019-03-23T18:41:34.289Z,52.83
2019-03-23T18:44:03.099Z,50.47
2019-03-23T18:46:31.820Z,47.70
2019-03-23T18:49:00.840Z,46.50
2019-03-23T18:51:29.573Z,44.10
2019-03-23T18:53:58.622Z,38.60
2019-03-23T18:56:27.357Z,33.77
2019-03-23T18:58:55.958Z,39.90
2019-03-23T19:01:24.706Z,39.80
2019-03-23T19:03:53.322Z,28.20
2019-03-23T19:06:22.054Z,26.80
2019-03-23T19:08:50.940Z,25.37
2019-03-23T19:11:19.869Z,26.10
2019-03-23T19:13:48.574Z,23.93
2019-03-23T19:16:17.297Z,27.83
2019-03-23T19:18:45.916Z,25.03
2019-03-23T19:21:14.630Z,23.77
2019-03-23T19:23:43.630Z,23.33
2019-03-23T19:26:12.606Z,26.00
2019-03-23T19:28:42.194Z,26.10
2019-03-23T19:31:10.253Z,23.20
2019-03-23T19:33:39.289Z,29.57
2019-03-23T19:39:43.156Z,28.07
2019-03-23T19:42:11.630Z,29.30
2019-03-23T19:44:40.196Z,27.80
2019-03-23T19:47:09.200Z,28.30
2019-03-23T19:49:37.898Z,33.80
2019-03-23T19:52:06.760Z,30.33
2019-03-23T19:54:35.270Z,30.47
2019-03-23T19:57:03.903Z,28.87
2019-03-23T19:59:32.323Z,27.93
2019-03-23T20:02:00.856Z,32.20
2019-03-23T20:04:29.540Z,37.97
2019-03-23T20:06:58.715Z,33.87
2019-03-23T20:09:27.311Z,31.77
2019-03-23T20:11:55.955Z,33.47
2019-03-23T20:14:24.578Z,40.43
2019-03-23T20:16:53.225Z,38.63
2019-03-23T20:19:21.958Z,35.70
2019-03-23T20:21:50.657Z,38.37
2019-03-23T20:24:19.295Z,38.07
2019-03-23T20:26:47.879Z,33.83
2019-03-23T20:29:16.496Z,36.07
2019-03-23T20:31:45.609Z,36.80
2019-03-23T20:34:14.181Z,34.23
2019-03-23T20:36:42.774Z,36.37
2019-03-23T20:39:11.658Z,33.50
2019-03-23T20:41:40.325Z,33.23
2019-03-23T20:44:09.941Z,36.00
2019-03-23T20:46:38.747Z,34.83
2019-03-23T20:49:08.890Z,34.50
2019-03-23T20:51:37.672Z,36.63
2019-03-23T20:54:06.407Z,32.70
2019-03-23T20:56:35.202Z,28.27
2019-03-23T20:59:03.815Z,33.33
2019-03-23T21:01:33.525Z,34.47
2019-03-23T21:04:02.033Z,29.87
2019-03-23T21:06:30.709Z,27.20
2019-03-23T21:08:59.428Z,22.13
2019-03-23T21:11:28.102Z,19.53
2019-03-23T21:13:56.703Z,17.20
2019-03-23T21:16:25.289Z,21.47
2019-03-23T21:18:53.787Z,18.87
2019-03-23T21:21:22.430Z,16.77
2019-03-23T21:23:52.216Z,16.83
2019-03-23T21:26:21.170Z,15.90
2019-03-23T21:28:50.107Z,15.47
2019-03-23T21:31:19.046Z,18.43
2019-03-23T21:33:48.057Z,16.80
2019-03-23T21:36:16.809Z,13.53
2019-03-23T21:38:46.074Z,11.53
2019-03-23T21:41:15.025Z,16.53
2019-03-23T21:43:44.045Z,14.93
2019-03-23T21:46:13.333Z,12.33
2019-03-23T21:48:42.625Z,8.57
2019-03-23T21:51:11.373Z,15.83
2019-03-23T21:53:41.132Z,11.83
2019-03-23T21:56:09.970Z,12.13
2019-03-23T21:58:40.266Z,8.00
2019-03-23T22:01:09.973Z,12.27
2019-03-23T22:03:39.098Z,9.73
2019-03-23T22:06:07.956Z,9.73
2019-03-23T22:08:37.001Z,10.53
2019-03-23T22:11:05.663Z,10.37
2019-03-23T22:13:34.576Z,11.50
2019-03-23T22:16:05.116Z,11.97
2019-03-23T22:18:33.920Z,12.53
2019-03-23T22:21:02.649Z,12.00
2019-03-23T22:23:31.362Z,11.23
2019-03-23T22:26:00.472Z,8.17
2019-03-23T22:28:29.745Z,9.73
2019-03-23T22:30:59.008Z,13.87
2019-03-23T22:33:28.582Z,12.23
2019-03-23T22:35:57.677Z,13.57
2019-03-23T22:38:26.862Z,10.90
2019-03-23T22:40:55.461Z,9.57
2019-03-23T22:43:24.258Z,11.63
2019-03-23T22:45:53.274Z,10.63
2019-03-23T22:48:22.279Z,10.27
2019-03-23T22:50:51.834Z,11.10
2019-03-23T22:53:21.078Z,10.80
2019-03-23T22:55:50.027Z,8.53
2019-03-23T22:58:18.625Z,9.80
2019-03-23T23:00:48.380Z,13.67
2019-03-23T23:03:17.341Z,11.50
2019-03-23T23:05:46.330Z,9.00
2019-03-23T23:08:15.078Z,7.50
2019-03-23T23:10:44.052Z,18.10
2019-03-23T23:13:13.208Z,8.47
2019-03-23T23:15:42.908Z,13.93
2019-03-23T23:18:11.846Z,13.30
2019-03-23T23:20:40.830Z,19.67
2019-03-23T23:23:09.678Z,18.37
2019-03-23T23:25:38.288Z,15.70
2019-03-23T23:28:07.318Z,12.90
2019-03-23T23:30:36.198Z,12.70
2019-03-23T23:33:05.410Z,12.63
2019-03-23T23:35:34.461Z,12.50
2019-03-23T23:38:03.584Z,17.13
2019-03-23T23:40:32.471Z,14.03
2019-03-23T23:43:01.490Z,18.47
2019-03-23T23:45:30.750Z,15.40
2019-03-23T23:47:59.589Z,18.23
2019-03-23T23:50:28.654Z,18.87
2019-03-23T23:52:57.546Z,15.93
2019-03-23T23:55:26.408Z,13.73
2019-03-23T23:57:55.896Z,18.47
